Tampa, Florida
Traffic Map
Current Weather Conditions
Tampa, Florida
Clear
Clear
78°
Feels Like: 79°
Wind Chill: 78° Ceiling: Unl
Heat Index: 79° Visibility: 10mi
Dew Point: 50° Wind: 8mph
Humidity: 37% Direction: 350° (N)
Pressure: 29.98in Gusts: 0mph
Raw Report DataKTPA 251753Z 35007KT 10SM CLR 26/10 A2998 RMK AO2 SLP151 T02560100 10272 20156 58016
Traffic Incident Summary
Active as of:
Severity:
Category:
InformationThere was an issue retrieving the traffic information for this location. Please try a different location or try again shortly.
Advertisements
Track Severe Weather on mobile